Temp: 2.9°C   Baro: 999.3mb
  Wind: 6.0mph   Dir: WNW (284°)
  Rain: 0.0mm (0.0mm/hr)
  Solar: 0W/m2  Hum: 81%
 
Bath Spa Weather Historical Data
Daily Summary for November 1, 2019 Units:  English    Metric   Both
Next Day »
Daily Weekly Monthly Yearly Custom
  High: Low: Average:
Temperature: 60.4 °F 50.5 °F 57 °F
Dew Point: 57.6 °F 49.1 °F 54.9 °F
Humidity: 96% 85% 92%
Wind Speed: 12.1mph 0mph 4.3mph
Wind Gust: 16mph - -
Wind direction- - SSW
Pressure: 29.8 in 29.1 in -
Precipitation: 0.09 in    
Historical Graphs
 
 
Tabular Data for November 1, 2019
Time Temperature Dew Point Pressure Wind direction Wind Speed Wind Gust Humidity Rainfall Rate (Hourly) solar
00:00 50.5 °F 49.1 °F 29.8 in ESE 0.9 mph 3 mph 95% 0.02 in 0.00 W/m2
00:05 50.5 °F 49.1 °F 29.8 in East 0.9 mph 3 mph 95% 0.02 in 0.00 W/m2
00:10 50.5 °F 49.1 °F 29.8 in Calm   3 mph 95% 0.02 in 0.00 W/m2
00:15 50.5 °F 49.1 °F 29.8 in East 0.9 mph 2 mph 95% 0.02 in 0.00 W/m2
00:20 50.5 °F 49.1 °F 29.8 in Calm   2 mph 95% 0.02 in 0.00 W/m2
00:25 50.5 °F 49.1 °F 29.8 in East 0.9 mph 5 mph 95% 0.02 in 0.00 W/m2
00:30 50.7 °F 49.3 °F 29.8 in East 0.9 mph 4 mph 95% 0.01 in 0.00 W/m2
00:35 50.7 °F 49.3 °F 29.8 in East 2.9 mph 3 mph 95% 0.01 in 0.00 W/m2
00:40 50.7 °F 49.3 °F 29.8 in Calm   2 mph 95% 0.01 in 0.00 W/m2
00:45 50.7 °F 49.3 °F 29.8 in Calm   2 mph 95% 0 in 0.00 W/m2
00:50 50.9 °F 49.5 °F 29.8 in ESE 2 mph 5 mph 95% 0 in 0.00 W/m2
00:55 50.9 °F 49.5 °F 29.8 in Calm   2 mph 95% 0.01 in 0.00 W/m2
01:00 51.1 °F 49.6 °F 29.8 in ESE 0.9 mph 2 mph 95% 0.01 in 0.00 W/m2
01:05 51.1 °F 49.6 °F 29.8 in Calm   4 mph 95% 0.01 in 0.00 W/m2
01:10 51.3 °F 49.8 °F 29.8 in ESE 2 mph 5 mph 95% 0.01 in 0.00 W/m2
01:15 51.3 °F 49.8 °F 29.8 in ESE 2.9 mph 5 mph 95% 0.01 in 0.00 W/m2
01:20 51.4 °F 50 °F 29.8 in SE 2 mph 6 mph 95% 0.01 in 0.00 W/m2
01:25 51.6 °F 50.2 °F 29.8 in SE 2.9 mph 4 mph 95% 0.01 in 0.00 W/m2
01:30 51.6 °F 50.2 °F 29.8 in ESE 2 mph 5 mph 95% 0.01 in 0.00 W/m2
01:35 51.8 °F 50.4 °F 29.8 in SE 2.9 mph 5 mph 95% 0.01 in 0.00 W/m2
01:40 51.8 °F 50.4 °F 29.8 in SE 4 mph 4 mph 95% 0.01 in 0.00 W/m2
01:45 51.8 °F 50.4 °F 29.8 in SE 2.9 mph 4 mph 95% 0.01 in 0.00 W/m2
01:50 52 °F 50.9 °F 29.8 in SE 2 mph 5 mph 96% 0.02 in 0.00 W/m2
01:55 52 °F 50.9 °F 29.8 in SE 0.9 mph 3 mph 96% 0.02 in 0.00 W/m2
02:00 52.2 °F 51.1 °F 29.7 in SE 4 mph 6 mph 96% 0.01 in 0.00 W/m2
02:05 52.3 °F 51.3 °F 29.7 in SE 2 mph 5 mph 96% 0.01 in 0.00 W/m2
02:10 52.5 °F 51.1 °F 29.7 in SE 4 mph 5 mph 95% 0.01 in 0.00 W/m2
02:15 52.5 °F 51.4 °F 29.7 in ESE 2.9 mph 6 mph 96% 0.01 in 0.00 W/m2
02:20 52.7 °F 51.6 °F 29.7 in ESE 8.1 mph 8 mph 96% 0.01 in 0.00 W/m2
02:25 52.9 °F 51.8 °F 29.7 in SE 2 mph 7 mph 96% 0.01 in 0.00 W/m2
02:30 53.1 °F 52 °F 29.7 in SE 2.9 mph 6 mph 96% 0.01 in 0.00 W/m2
02:35 53.1 °F 52 °F 29.7 in SE 2 mph 5 mph 96% 0.01 in 0.00 W/m2
02:40 53.1 °F 52 °F 29.7 in ESE 4.9 mph 7 mph 96% 0.01 in 0.00 W/m2
02:45 53.2 °F 52.2 °F 29.7 in ESE 2.9 mph 4 mph 96% 0.01 in 0.00 W/m2
02:50 53.4 °F 52.3 °F 29.7 in ESE 0.9 mph 8 mph 96% 0 in 0.00 W/m2
02:55 53.6 °F 52.5 °F 29.7 in ESE 4 mph 5 mph 96% 0 in 0.00 W/m2
03:00 53.6 °F 52.5 °F 29.7 in SE 4.9 mph 9 mph 96% 0 in 0.00 W/m2
03:05 53.8 °F 52.7 °F 29.7 in ESE 4.9 mph 5 mph 96% 0 in 0.00 W/m2
03:10 53.8 °F 52.7 °F 29.7 in SE 4 mph 5 mph 96% 0 in 0.00 W/m2
03:15 53.8 °F 52.7 °F 29.7 in SE 2.9 mph 6 mph 96% 0 in 0.00 W/m2
03:20 53.8 °F 52.7 °F 29.7 in SE 2 mph 6 mph 96% 0 in 0.00 W/m2
03:25 54 °F 52.9 °F 29.7 in SE 2 mph 5 mph 96% 0 in 0.00 W/m2
03:30 54 °F 52.9 °F 29.7 in Calm   4 mph 96% 0 in 0.00 W/m2
03:35 54 °F 52.9 °F 29.7 in Calm   4 mph 96% 0 in 0.00 W/m2
03:40 54 °F 52.9 °F 29.7 in SE 2 mph 6 mph 96% 0.01 in 0.00 W/m2
03:45 54.1 °F 53.1 °F 29.7 in East 2 mph 4 mph 96% 0.01 in 0.00 W/m2
03:50 54 °F 52.9 °F 29.7 in East 4.9 mph 5 mph 96% 0.01 in 0.00 W/m2
03:55 54.1 °F 53.1 °F 29.6 in ESE 2 mph 5 mph 96% 0.01 in 0.00 W/m2
04:00 54.1 °F 53.1 °F 29.6 in ESE 2 mph 7 mph 96% 0.01 in 0.00 W/m2
04:05 54.1 °F 53.1 °F 29.6 in SE 6 mph 8 mph 96% 0.01 in 0.00 W/m2
04:10 54.3 °F 53.2 °F 29.6 in SE 2 mph 3 mph 96% 0.01 in 0.00 W/m2
04:15 54.3 °F 53.2 °F 29.6 in Calm   7 mph 96% 0.01 in 0.00 W/m2
04:20 54.7 °F 53.6 °F 29.6 in SSE 4 mph 7 mph 96% 0.01 in 0.00 W/m2
04:25 54.7 °F 53.6 °F 29.6 in South 6.9 mph 10 mph 96% 0.01 in 0.00 W/m2
04:30 54.9 °F 53.8 °F 29.6 in South 8.1 mph 8 mph 96% 0.01 in 0.00 W/m2
04:35 55 °F 54 °F 29.6 in SSE 4 mph 14 mph 96% 0.01 in 0.00 W/m2
04:40 55 °F 54 °F 29.6 in SE 8.1 mph 8 mph 96% 0 in 0.00 W/m2
04:45 55.2 °F 54.1 °F 29.6 in South 4.9 mph 9 mph 96% 0 in 0.00 W/m2
04:50 55.2 °F 54.1 °F 29.6 in SSE 4.9 mph 8 mph 96% 0 in 0.00 W/m2
04:55 55.2 °F 54.1 °F 29.6 in South 4.9 mph 6 mph 96% 0 in 0.00 W/m2
05:00 55.2 °F 54.1 °F 29.6 in South 4.9 mph 10 mph 96% 0 in 0.00 W/m2
05:05 55.4 °F 54.3 °F 29.6 in SSE 10.1 mph 15 mph 96% 0 in 0.00 W/m2
05:10 55.4 °F 54.3 °F 29.6 in SSW 11 mph 11 mph 96% 0 in 0.00 W/m2
05:15 55.6 °F 54.5 °F 29.6 in South 4 mph 9 mph 96% 0 in 0.00 W/m2
05:20 55.6 °F 54.5 °F 29.6 in SE 2.9 mph 15 mph 96% 0 in 0.00 W/m2
05:25 55.6 °F 54.5 °F 29.6 in SSW 6 mph 9 mph 96% 0 in 0.00 W/m2
05:30 55.6 °F 54.1 °F 29.6 in South 4.9 mph 7 mph 95% 0 in 0.00 W/m2
05:35 55.6 °F 54.1 °F 29.6 in SSE 4.9 mph 9 mph 95% 0 in 0.00 W/m2
05:40 55.8 °F 54.3 °F 29.6 in South 11 mph 15 mph 95% 0 in 0.00 W/m2
05:45 55.8 °F 54.3 °F 29.6 in South 4.9 mph 11 mph 95% 0 in 0.00 W/m2
05:50 55.8 °F 54.3 °F 29.6 in SSE 0.9 mph 7 mph 95% 0 in 0.00 W/m2
05:55 55.8 °F 54.3 °F 29.6 in South 2.9 mph 10 mph 95% 0 in 0.00 W/m2
06:00 55.8 °F 54.3 °F 29.6 in SSW 2.9 mph 9 mph 95% 0 in 0.00 W/m2
06:05 55.8 °F 54.1 °F 29.6 in SSW 6.9 mph 12 mph 94% 0 in 0.00 W/m2
06:10 55.8 °F 54.3 °F 29.6 in South 8.1 mph 9 mph 95% 0 in 0.00 W/m2
06:15 55.9 °F 54.5 °F 29.6 in South 4 mph 13 mph 95% 0 in 0.00 W/m2
06:20 55.9 °F 54.5 °F 29.6 in South 6 mph 8 mph 95% 0 in 0.00 W/m2
06:25 55.9 °F 54.5 °F 29.6 in South 4.9 mph 8 mph 95% 0 in 0.00 W/m2
06:30 55.9 °F 54.5 °F 29.6 in South 6 mph 9 mph 95% 0 in 0.00 W/m2
06:35 55.9 °F 54.5 °F 29.6 in SSW 2 mph 11 mph 95% 0 in 0.00 W/m2
06:40 55.9 °F 54.5 °F 29.6 in South 2 mph 7 mph 95% 0 in 0.00 W/m2
06:45 56.1 °F 54.7 °F 29.6 in South 2 mph 8 mph 95% 0 in 0.00 W/m2
06:50 56.1 °F 54.7 °F 29.6 in South 4 mph 9 mph 95% 0 in 0.00 W/m2
06:55 56.1 °F 54.7 °F 29.6 in South 6.9 mph 8 mph 95% 0 in 0.00 W/m2
07:00 56.1 °F 54.5 °F 29.6 in South 8.1 mph 8 mph 94% 0 in 0.00 W/m2
07:05 56.1 °F 54.5 °F 29.6 in South 4.9 mph 8 mph 94% 0 in 0.00 W/m2
07:10 56.3 °F 54.9 °F 29.6 in South 4 mph 11 mph 95% 0 in 0.00 W/m2
07:15 56.3 °F 54.7 °F 29.6 in SSW 8.1 mph 8 mph 94% 0 in 0.00 W/m2
07:20 56.3 °F 54.7 °F 29.6 in SSW 2.9 mph 7 mph 94% 0 in 0.00 W/m2
07:25 56.3 °F 54.9 °F 29.6 in SW 2 mph 5 mph 95% 0 in 5.00 W/m2
07:30 56.5 °F 54.9 °F 29.6 in SW 2 mph 3 mph 94% 0 in 5.00 W/m2
07:35 56.5 °F 55 °F 29.6 in WSW 2.9 mph 6 mph 95% 0 in 7.00 W/m2
07:40 56.5 °F 55 °F 29.5 in WSW 4 mph 6 mph 95% 0 in 18.00 W/m2
07:45 56.5 °F 55 °F 29.5 in Calm   2 mph 95% 0 in 35.00 W/m2
07:50 56.5 °F 55 °F 29.5 in SSW 4.9 mph 7 mph 95% 0 in 44.00 W/m2
07:55 56.7 °F 55.2 °F 29.5 in WSW 2 mph 8 mph 95% 0 in 47.00 W/m2
08:00 56.7 °F 55.2 °F 29.5 in SSW 6.9 mph 7 mph 95% 0 in 51.00 W/m2
08:05 56.7 °F 55.2 °F 29.5 in SSW 2 mph 8 mph 95% 0 in 47.00 W/m2
08:10 56.8 °F 55.4 °F 29.5 in South 4.9 mph 6 mph 95% 0 in 53.00 W/m2
08:15 56.8 °F 55.4 °F 29.5 in SSW 4.9 mph 10 mph 95% 0 in 56.00 W/m2
08:20 57 °F 55.6 °F 29.5 in SSW 2.9 mph 8 mph 95% 0 in 56.00 W/m2
08:25 57 °F 55.6 °F 29.5 in South 6.9 mph 8 mph 95% 0 in 62.00 W/m2
08:30 57 °F 55.6 °F 29.5 in SSW 2.9 mph 7 mph 95% 0 in 60.00 W/m2
08:35 57 °F 55.6 °F 29.5 in SSW 4.9 mph 8 mph 95% 0 in 60.00 W/m2
08:40 57.2 °F 55.8 °F 29.5 in SSW 2.9 mph 4 mph 95% 0 in 97.00 W/m2
08:45 57.4 °F 55.9 °F 29.5 in SSW 4 mph 4 mph 95% 0 in 93.00 W/m2
08:50 57.4 °F 55.9 °F 29.5 in SSW 2 mph 4 mph 95% 0 in 81.00 W/m2
08:55 57.6 °F 56.1 °F 29.5 in SSW 2.9 mph 4 mph 95% 0 in 111.00 W/m2
09:00 57.7 °F 56.3 °F 29.5 in SW 2.9 mph 5 mph 95% 0 in 105.00 W/m2
09:05 57.7 °F 56.3 °F 29.5 in Calm   8 mph 95% 0 in 100.00 W/m2
09:10 57.9 °F 56.5 °F 29.5 in SW 2.9 mph 6 mph 95% 0 in 81.00 W/m2
09:15 57.9 °F 56.5 °F 29.5 in SW 2 mph 5 mph 95% 0 in 60.00 W/m2
09:20 58.1 °F 56.7 °F 29.5 in SW 2.9 mph 4 mph 95% 0 in 63.00 W/m2
09:25 58.1 °F 56.7 °F 29.5 in SW 2 mph 5 mph 95% 0 in 60.00 W/m2
09:30 58.3 °F 56.8 °F 29.5 in WSW 4.9 mph 7 mph 95% 0 in 93.00 W/m2
09:35 58.3 °F 56.8 °F 29.5 in WSW 4 mph 6 mph 95% 0 in 90.00 W/m2
09:40 58.3 °F 56.8 °F 29.5 in SW 2.9 mph 9 mph 95% 0 in 97.00 W/m2
09:45 58.3 °F 56.5 °F 29.5 in WSW 8.1 mph 9 mph 94% 0 in 151.00 W/m2
09:50 58.5 °F 56.7 °F 29.5 in SW 0.9 mph 9 mph 94% 0 in 172.00 W/m2
09:55 58.6 °F 56.8 °F 29.5 in SW 4 mph 7 mph 94% 0 in 193.00 W/m2
10:00 58.8 °F 57 °F 29.5 in WSW 4 mph 9 mph 94% 0 in 227.00 W/m2
10:05 59.2 °F 57.4 °F 29.5 in WSW 2.9 mph 8 mph 94% 0 in 192.00 W/m2
10:10 59.2 °F 57.2 °F 29.5 in SW 6.9 mph 8 mph 93% 0 in 204.00 W/m2
10:15 59.4 °F 57.4 °F 29.5 in SW 6 mph 8 mph 93% 0 in 248.00 W/m2
10:20 59.4 °F 57 °F 29.5 in West 6.9 mph 10 mph 92% 0 in 171.00 W/m2
10:25 59.5 °F 57.2 °F 29.5 in West 4 mph 8 mph 92% 0 in 121.00 W/m2
10:30 59.4 °F 56.7 °F 29.5 in WSW 4 mph 13 mph 91% 0 in 88.00 W/m2
10:35 59.2 °F 56.3 °F 29.5 in SW 4.9 mph 8 mph 90% 0 in 102.00 W/m2
10:40 58.6 °F 55.8 °F 29.5 in SW 8.9 mph 13 mph 90% 0 in 100.00 W/m2
10:45 58.6 °F 55.4 °F 29.5 in SW 4.9 mph 7 mph 89% 0 in 120.00 W/m2
10:50 58.6 °F 55.4 °F 29.5 in SW 6.9 mph 10 mph 89% 0 in 121.00 W/m2
10:55 58.6 °F 55.4 °F 29.5 in SW 10.1 mph 10 mph 89% 0 in 114.00 W/m2
11:00 58.5 °F 55.2 °F 29.5 in SW 6.9 mph 8 mph 89% 0 in 53.00 W/m2
11:05 58.3 °F 55 °F 29.5 in WSW 8.9 mph 10 mph 89% 0 in 69.00 W/m2
11:10 58.1 °F 54.9 °F 29.5 in WSW 6 mph 7 mph 89% 0 in 98.00 W/m2
11:15 57.9 °F 54.7 °F 29.5 in WSW 4 mph 10 mph 89% 0 in 134.00 W/m2
11:20 57.9 °F 54.7 °F 29.5 in WSW 6 mph 10 mph 89% 0 in 100.00 W/m2
11:25 57.9 °F 54.7 °F 29.5 in WSW 6.9 mph 9 mph 89% 0 in 77.00 W/m2
11:30 57.9 °F 54.7 °F 29.5 in West 6.9 mph 9 mph 89% 0 in 84.00 W/m2
11:35 57.9 °F 54.7 °F 29.5 in WSW 4 mph 5 mph 89% 0 in 105.00 W/m2
11:40 57.9 °F 54.7 °F 29.5 in SW 4 mph 7 mph 89% 0 in 118.00 W/m2
11:45 57.9 °F 54.7 °F 29.5 in West 6 mph 8 mph 89% 0 in 139.00 W/m2
11:50 57.9 °F 54.7 °F 29.5 in WNW 4 mph 8 mph 89% 0 in 151.00 W/m2
11:55 58.3 °F 54.7 °F 29.5 in West 2.9 mph 7 mph 88% 0 in 397.00 W/m2
12:00 58.5 °F 54.9 °F 29.4 in WSW 4.9 mph 11 mph 88% 0 in 285.00 W/m2
12:05 59 °F 55.4 °F 29.4 in SSW 8.9 mph 10 mph 88% 0 in 230.00 W/m2
12:10 58.6 °F 54.9 °F 29.4 in WSW 6 mph 13 mph 87% 0 in 195.00 W/m2
12:15 58.6 °F 54.9 °F 29.4 in WSW 2.9 mph 10 mph 87% 0 in 257.00 W/m2
12:20 58.8 °F 55 °F 29.4 in SW 6.9 mph 8 mph 87% 0 in 149.00 W/m2
12:25 58.8 °F 55 °F 29.4 in West 2 mph 7 mph 87% 0 in 128.00 W/m2
12:30 58.8 °F 55 °F 29.4 in West 4.9 mph 7 mph 87% 0 in 183.00 W/m2
12:35 58.8 °F 55 °F 29.4 in West 2 mph 6 mph 87% 0 in 102.00 W/m2
12:40 58.8 °F 55 °F 29.4 in West 4 mph 12 mph 87% 0 in 98.00 W/m2
12:45 58.8 °F 55 °F 29.4 in West 4.9 mph 9 mph 87% 0 in 95.00 W/m2
12:50 58.8 °F 55 °F 29.4 in WSW 6.9 mph 8 mph 87% 0 in 176.00 W/m2
12:55 59 °F 55.2 °F 29.4 in WSW 8.1 mph 12 mph 87% 0 in 211.00 W/m2
13:00 59.2 °F 55.4 °F 29.4 in WSW 6 mph 11 mph 87% 0 in 167.00 W/m2
13:05 59.2 °F 55.4 °F 29.4 in WSW 8.1 mph 9 mph 87% 0 in 105.00 W/m2
13:10 59.2 °F 55.4 °F 29.4 in SW 2.9 mph 6 mph 87% 0 in 104.00 W/m2
13:15 59.2 °F 55.4 °F 29.4 in WSW 0.9 mph 8 mph 87% 0 in 123.00 W/m2
13:20 59.2 °F 55.4 °F 29.4 in SW 0.9 mph 7 mph 87% 0 in 46.00 W/m2
13:25 59 °F 55.2 °F 29.4 in SSW 6.9 mph 12 mph 87% 0 in 35.00 W/m2
13:30 58.8 °F 55 °F 29.4 in WSW 4 mph 8 mph 87% 0 in 62.00 W/m2
13:35 58.8 °F 55 °F 29.4 in WSW 2 mph 7 mph 87% 0 in 86.00 W/m2
13:40 59.2 °F 55.4 °F 29.4 in West 2 mph 5 mph 87% 0 in 223.00 W/m2
13:45 60.1 °F 56.1 °F 29.4 in West 2 mph 4 mph 87% 0 in 207.00 W/m2
13:50 60.4 °F 56.3 °F 29.4 in West 2.9 mph 5 mph 86% 0 in 134.00 W/m2
13:55 60.3 °F 55.8 °F 29.4 in WSW 2.9 mph 7 mph 85% 0 in 100.00 W/m2
14:00 60.1 °F 55.6 °F 29.4 in Calm   4 mph 85% 0 in 120.00 W/m2
14:05 60.3 °F 56.1 °F 29.4 in WSW 0.9 mph 6 mph 86% 0 in 121.00 W/m2
14:10 60.1 °F 55.6 °F 29.4 in WSW 4 mph 7 mph 85% 0 in 109.00 W/m2
14:15 60.1 °F 55.6 °F 29.4 in WSW 0.9 mph 4 mph 85% 0 in 90.00 W/m2
14:20 60.1 °F 55.6 °F 29.4 in SW 4.9 mph 9 mph 85% 0 in 113.00 W/m2
14:25 60.1 °F 55.6 °F 29.4 in Calm   6 mph 85% 0 in 195.00 W/m2
14:30 60.3 °F 55.8 °F 29.4 in WSW 8.1 mph 8 mph 85% 0 in 111.00 W/m2
14:35 60.1 °F 55.6 °F 29.4 in SSW 6 mph 7 mph 85% 0 in 91.00 W/m2
14:40 59.7 °F 55.6 °F 29.4 in SW 10.1 mph 12 mph 86% 0 in 83.00 W/m2
14:45 59.7 °F 55.6 °F 29.4 in South 2.9 mph 6 mph 86% 0 in 54.00 W/m2
14:50 59.5 °F 55.6 °F 29.4 in SSW 4.9 mph 7 mph 87% 0 in 44.00 W/m2
14:55 59.4 °F 55.4 °F 29.3 in SW 4 mph 13 mph 87% 0 in 42.00 W/m2
15:00 59.4 °F 55.8 °F 29.3 in SSW 6.9 mph 10 mph 88% 0 in 49.00 W/m2
15:05 59.4 °F 55.8 °F 29.3 in SW 2.9 mph 4 mph 88% 0 in 35.00 W/m2
15:10 59.2 °F 55.6 °F 29.3 in SSW 2.9 mph 5 mph 88% 0 in 32.00 W/m2
15:15 59.2 °F 55.6 °F 29.3 in SW 2 mph 3 mph 88% 0 in 18.00 W/m2
15:20 59.2 °F 55.9 °F 29.3 in SW 4.9 mph 6 mph 89% 0 in 51.00 W/m2
15:25 59.2 °F 55.9 °F 29.3 in SSW 8.9 mph 10 mph 89% 0 in 56.00 W/m2
15:30 59.2 °F 56.3 °F 29.3 in SSW 2.9 mph 7 mph 90% 0 in 53.00 W/m2
15:35 59.2 °F 56.3 °F 29.3 in SSW 4.9 mph 9 mph 90% 0 in 37.00 W/m2
15:40 59.2 °F 56.3 °F 29.3 in SW 2.9 mph 11 mph 90% 0 in 25.00 W/m2
15:45 59.2 °F 56.5 °F 29.3 in SW 4 mph 4 mph 91% 0 in 12.00 W/m2
15:50 59.2 °F 56.5 °F 29.3 in SSW 6 mph 9 mph 91% 0 in 7.00 W/m2
15:55 59 °F 56.3 °F 29.3 in SW 4 mph 10 mph 91% 0.01 in 7.00 W/m2
16:00 58.8 °F 56.1 °F 29.3 in SSW 2 mph 6 mph 91% 0.01 in 7.00 W/m2
16:05 58.8 °F 56.5 °F 29.3 in SSW 0.9 mph 7 mph 92% 0.02 in 16.00 W/m2
16:10 58.8 °F 56.5 °F 29.3 in SSW 6 mph 10 mph 92% 0.02 in 14.00 W/m2
16:15 58.8 °F 56.5 °F 29.3 in SSW 4 mph 10 mph 92% 0.02 in 9.00 W/m2
16:20 58.8 °F 56.5 °F 29.3 in SSW 4.9 mph 6 mph 92% 0.02 in 11.00 W/m2
16:25 58.8 °F 56.8 °F 29.3 in SSW 11 mph 11 mph 93% 0.02 in 5.00 W/m2
16:30 58.8 °F 56.8 °F 29.3 in SSW 12.1 mph 13 mph 93% 0.02 in 5.00 W/m2
16:35 59 °F 57 °F 29.3 in South 0.9 mph 12 mph 93% 0.02 in 0.00 W/m2
16:40 59.2 °F 57.2 °F 29.3 in South 4.9 mph 12 mph 93% 0.02 in 0.00 W/m2
16:45 59.2 °F 57.2 °F 29.3 in SW 4 mph 11 mph 93% 0.02 in 0.00 W/m2
16:50 59.2 °F 57.2 °F 29.3 in South 4 mph 9 mph 93% 0.02 in 0.00 W/m2
16:55 59.2 °F 57.2 °F 29.3 in SSW 6.9 mph 11 mph 93% 0.02 in 0.00 W/m2
17:00 59.4 °F 57.4 °F 29.3 in South 6.9 mph 8 mph 93% 0.02 in 0.00 W/m2
17:05 59.4 °F 57.4 °F 29.3 in SSW 2.9 mph 10 mph 93% 0.01 in 0.00 W/m2
17:10 59.4 °F 57.4 °F 29.3 in South 4.9 mph 9 mph 93% 0.01 in 0.00 W/m2
17:15 59.4 °F 57.4 °F 29.2 in South 12.1 mph 12 mph 93% 0.01 in 0.00 W/m2
17:20 59.4 °F 57.4 °F 29.2 in SSW 6.9 mph 7 mph 93% 0.01 in 0.00 W/m2
17:25 59.4 °F 57.4 °F 29.2 in SSW 6.9 mph 10 mph 93% 0.01 in 0.00 W/m2
17:30 59.4 °F 57.4 °F 29.2 in SW 2.9 mph 7 mph 93% 0.01 in 0.00 W/m2
17:35 59.4 °F 57.4 °F 29.2 in SSW 2 mph 7 mph 93% 0.01 in 0.00 W/m2
17:40 59.4 °F 57.4 °F 29.2 in SW 2.9 mph 11 mph 93% 0.01 in 0.00 W/m2
17:45 59.4 °F 57.4 °F 29.2 in SSW 2 mph 9 mph 93% 0 in 0.00 W/m2
17:50 59.4 °F 57.4 °F 29.2 in SSW 4 mph 9 mph 93% 0 in 0.00 W/m2
17:55 59.4 °F 57.4 °F 29.2 in SSW 2 mph 7 mph 93% 0 in 0.00 W/m2
18:00 59.4 °F 57.4 °F 29.2 in SSW 2.9 mph 8 mph 93% 0 in 0.00 W/m2
18:05 59.5 °F 57.6 °F 29.2 in South 4 mph 12 mph 93% 0 in 0.00 W/m2
18:10 59.5 °F 57.6 °F 29.2 in SW 4.9 mph 13 mph 93% 0 in 0.00 W/m2
18:15 59.5 °F 57.2 °F 29.2 in SSW 4.9 mph 11 mph 92% 0 in 0.00 W/m2
18:20 59.5 °F 57.2 °F 29.2 in SSW 2 mph 11 mph 92% 0 in 0.00 W/m2
18:25 59.5 °F 57.2 °F 29.2 in SW 6 mph 12 mph 92% 0 in 0.00 W/m2
18:30 59.5 °F 57.2 °F 29.2 in SSW 4 mph 14 mph 92% 0 in 0.00 W/m2
18:35 59.5 °F 57.2 °F 29.2 in WSW 4.9 mph 10 mph 92% 0 in 0.00 W/m2
18:40 59.4 °F 57 °F 29.2 in SSW 2.9 mph 10 mph 92% 0 in 0.00 W/m2
18:45 59.5 °F 57.2 °F 29.2 in SSW 2 mph 12 mph 92% 0 in 0.00 W/m2
18:50 59.5 °F 57.2 °F 29.2 in SSE 6.9 mph 12 mph 92% 0 in 0.00 W/m2
18:55 59.5 °F 57.2 °F 29.2 in SSW 4.9 mph 7 mph 92% 0 in 0.00 W/m2
19:00 59.5 °F 57.2 °F 29.2 in SW 8.1 mph 15 mph 92% 0 in 0.00 W/m2
19:05 59.5 °F 57.2 °F 29.2 in SSE 6.9 mph 14 mph 92% 0 in 0.00 W/m2
19:10 59.5 °F 57.2 °F 29.2 in Calm   9 mph 92% 0 in 0.00 W/m2
19:15 59.5 °F 57.2 °F 29.2 in SSW 4 mph 13 mph 92% 0 in 0.00 W/m2
19:20 59.7 °F 57 °F 29.2 in SW 8.1 mph 11 mph 91% 0 in 0.00 W/m2
19:25 59.7 °F 57 °F 29.2 in SW 6.9 mph 7 mph 91% 0 in 0.00 W/m2
19:30 59.9 °F 57.2 °F 29.2 in SW 4.9 mph 8 mph 91% 0 in 0.00 W/m2
19:35 59.9 °F 57.2 °F 29.2 in WSW 11 mph 11 mph 91% 0 in 0.00 W/m2
19:40 59.9 °F 57 °F 29.2 in WSW 11 mph 15 mph 90% 0 in 0.00 W/m2
19:45 60.1 °F 57.2 °F 29.2 in SSW 6 mph 11 mph 90% 0 in 0.00 W/m2
19:50 59.9 °F 57 °F 29.2 in West 4 mph 10 mph 90% 0 in 0.00 W/m2
19:55 59.9 °F 57 °F 29.2 in SW 8.1 mph 13 mph 90% 0 in 0.00 W/m2
20:00 59.7 °F 56.8 °F 29.2 in SSW 6 mph 10 mph 90% 0 in 0.00 W/m2
20:05 59.7 °F 56.5 °F 29.2 in Calm   9 mph 89% 0 in 0.00 W/m2
20:10 59.7 °F 56.5 °F 29.2 in WSW 6.9 mph 11 mph 89% 0 in 0.00 W/m2
20:15 59.5 °F 56.7 °F 29.2 in South 4 mph 7 mph 90% 0 in 0.00 W/m2
20:20 59.4 °F 56.5 °F 29.2 in SW 6 mph 8 mph 90% 0 in 0.00 W/m2
20:25 59.2 °F 56.5 °F 29.1 in SW 4 mph 7 mph 91% 0 in 0.00 W/m2
20:30 59.2 °F 56.5 °F 29.1 in SW 2 mph 5 mph 91% 0 in 0.00 W/m2
20:35 59.2 °F 56.5 °F 29.1 in WSW 2.9 mph 6 mph 91% 0 in 0.00 W/m2
20:40 59 °F 56.3 °F 29.1 in WSW 2.9 mph 6 mph 91% 0.01 in 0.00 W/m2
20:45 59 °F 56.7 °F 29.1 in WSW 2 mph 6 mph 92% 0.01 in 0.00 W/m2
20:50 58.8 °F 56.5 °F 29.1 in WSW 8.1 mph 9 mph 92% 0.01 in 0.00 W/m2
20:55 58.8 °F 56.5 °F 29.1 in WSW 0.9 mph 7 mph 92% 0.02 in 0.00 W/m2
21:00 58.8 °F 56.5 °F 29.1 in WSW 2.9 mph 7 mph 92% 0.02 in 0.00 W/m2
21:05 58.6 °F 56.3 °F 29.1 in SW 4 mph 8 mph 92% 0.02 in 0.00 W/m2
21:10 58.6 °F 56.7 °F 29.1 in WSW 4.9 mph 8 mph 93% 0.03 in 0.00 W/m2
21:15 58.6 °F 56.7 °F 29.1 in WSW 6.9 mph 10 mph 93% 0.03 in 0.00 W/m2
21:20 58.6 °F 56.7 °F 29.1 in WSW 2 mph 6 mph 93% 0.03 in 0.00 W/m2
21:25 58.5 °F 56.5 °F 29.1 in West 4.9 mph 8 mph 93% 0.03 in 0.00 W/m2
21:30 58.5 °F 56.5 °F 29.1 in WSW 4 mph 9 mph 93% 0.03 in 0.00 W/m2
21:35 58.3 °F 56.3 °F 29.1 in West 6 mph 12 mph 93% 0.03 in 0.00 W/m2
21:40 58.3 °F 56.3 °F 29.1 in West 4 mph 11 mph 93% 0.02 in 0.00 W/m2
21:45 57.9 °F 55.9 °F 29.1 in West 2 mph 8 mph 93% 0.02 in 0.00 W/m2
21:50 57.7 °F 55.4 °F 29.1 in West 6.9 mph 16 mph 92% 0.03 in 0.00 W/m2
21:55 57.6 °F 55.2 °F 29.1 in West 4 mph 12 mph 92% 0.02 in 0.00 W/m2
22:00 57.4 °F 55 °F 29.1 in WNW 12.1 mph 14 mph 92% 0.02 in 0.00 W/m2
22:05 57.4 °F 54.9 °F 29.1 in West 2.9 mph 15 mph 91% 0.02 in 0.00 W/m2
22:10 57.4 °F 54.9 °F 29.1 in West 4.9 mph 10 mph 91% 0.01 in 0.00 W/m2
22:15 57.4 °F 54.9 °F 29.1 in West 4.9 mph 15 mph 91% 0.01 in 0.00 W/m2
22:20 57.2 °F 54.3 °F 29.1 in West 0.9 mph 9 mph 90% 0.01 in 0.00 W/m2
22:25 57.2 °F 54.3 °F 29.1 in West 4 mph 7 mph 90% 0.01 in 0.00 W/m2
22:30 57 °F 54.1 °F 29.1 in SW 4 mph 10 mph 90% 0.01 in 0.00 W/m2
22:35 57 °F 54.1 °F 29.1 in West 2.9 mph 10 mph 90% 0.01 in 0.00 W/m2
22:40 57 °F 54.1 °F 29.1 in WSW 2.9 mph 12 mph 90% 0.01 in 0.00 W/m2
22:45 57.2 °F 54.3 °F 29.1 in WSW 6 mph 10 mph 90% 0.01 in 0.00 W/m2
22:50 57.2 °F 54 °F 29.1 in West 2.9 mph 9 mph 89% 0 in 0.00 W/m2
22:55 57 °F 53.8 °F 29.1 in West 6 mph 10 mph 89% 0 in 0.00 W/m2
23:00 57 °F 53.8 °F 29.1 in WSW 8.9 mph 15 mph 89% 0 in 0.00 W/m2
23:05 57 °F 53.8 °F 29.1 in West 4.9 mph 8 mph 89% 0 in 0.00 W/m2
23:10 57 °F 53.8 °F 29.1 in WSW 4.9 mph 6 mph 89% 0 in 0.00 W/m2
23:15 56.8 °F 53.6 °F 29.1 in West 4.9 mph 12 mph 89% 0 in 0.00 W/m2
23:20 56.7 °F 53.4 °F 29.1 in WSW 2.9 mph 8 mph 89% 0 in 0.00 W/m2
23:25 56.5 °F 53.6 °F 29.1 in SW 6 mph 11 mph 90% 0 in 0.00 W/m2
23:30 56.3 °F 53.4 °F 29.1 in WSW 10.1 mph 13 mph 90% 0 in 0.00 W/m2
23:35 56.1 °F 53.2 °F 29.1 in SW 6.9 mph 12 mph 90% 0 in 0.00 W/m2
23:40 56.1 °F 53.2 °F 29.1 in West 11 mph 13 mph 90% 0 in 0.00 W/m2
23:45 56.1 °F 53.6 °F 29.1 in West 8.1 mph 13 mph 91% 0 in 0.00 W/m2
23:50 56.1 °F 53.6 °F 29.1 in West 4.9 mph 9 mph 91% 0 in 0.00 W/m2
23:55 55.9 °F 53.4 °F 29.1 in West 8.9 mph 11 mph 91% 0 in 0.00 W/m2